sensor_id;sensor_type;location;lat;lon;timestamp;P1;durP1;ratioP1;P2;durP2;ratioP2
14799;SDS011;7491;57.750;11.970;2023-02-28T00:01:02;5.05;;;2.95;;
14799;SDS011;7491;57.750;11.970;2023-02-28T00:03:31;6.32;;;3.22;;
14799;SDS011;7491;57.750;11.970;2023-02-28T00:06:00;4.05;;;2.70;;
14799;SDS011;7491;57.750;11.970;2023-02-28T00:08:26;4.90;;;3.20;;
14799;SDS011;7491;57.750;11.970;2023-02-28T00:10:53;2.45;;;2.22;;
14799;SDS011;7491;57.750;11.970;2023-02-28T00:13:19;6.47;;;3.20;;
14799;SDS011;7491;57.750;11.970;2023-02-28T00:15:46;4.78;;;3.50;;
14799;SDS011;7491;57.750;11.970;2023-02-28T00:18:12;6.55;;;2.78;;
14799;SDS011;7491;57.750;11.970;2023-02-28T00:20:40;4.00;;;2.40;;
14799;SDS011;7491;57.750;11.970;2023-02-28T00:23:07;2.85;;;2.20;;
14799;SDS011;7491;57.750;11.970;2023-02-28T00:25:34;10.23;;;2.85;;
14799;SDS011;7491;57.750;11.970;2023-02-28T00:28:00;3.97;;;2.45;;
14799;SDS011;7491;57.750;11.970;2023-02-28T00:30:26;2.90;;;2.20;;
14799;SDS011;7491;57.750;11.970;2023-02-28T00:32:53;4.03;;;2.20;;
14799;SDS011;7491;57.750;11.970;2023-02-28T00:35:19;4.75;;;2.30;;
14799;SDS011;7491;57.750;11.970;2023-02-28T00:37:47;6.47;;;3.25;;
14799;SDS011;7491;57.750;11.970;2023-02-28T00:40:14;4.10;;;1.77;;
14799;SDS011;7491;57.750;11.970;2023-02-28T00:42:40;5.18;;;2.25;;
14799;SDS011;7491;57.750;11.970;2023-02-28T00:45:07;3.38;;;2.20;;
14799;SDS011;7491;57.750;11.970;2023-02-28T00:47:34;3.50;;;1.90;;
14799;SDS011;7491;57.750;11.970;2023-02-28T00:50:00;4.18;;;2.25;;
14799;SDS011;7491;57.750;11.970;2023-02-28T00:52:27;7.57;;;3.42;;
14799;SDS011;7491;57.750;11.970;2023-02-28T00:54:55;7.43;;;3.88;;
14799;SDS011;7491;57.750;11.970;2023-02-28T00:57:22;5.45;;;3.03;;
14799;SDS011;7491;57.750;11.970;2023-02-28T00:59:48;4.85;;;2.83;;
14799;SDS011;7491;57.750;11.970;2023-02-28T01:02:15;5.55;;;2.83;;
14799;SDS011;7491;57.750;11.970;2023-02-28T01:04:43;10.38;;;3.78;;
14799;SDS011;7491;57.750;11.970;2023-02-28T01:07:09;4.22;;;3.17;;
14799;SDS011;7491;57.750;11.970;2023-02-28T01:09:36;3.30;;;2.58;;
14799;SDS011;7491;57.750;11.970;2023-02-28T01:12:04;4.70;;;2.78;;
14799;SDS011;7491;57.750;11.970;2023-02-28T01:14:30;7.68;;;2.80;;
14799;SDS011;7491;57.750;11.970;2023-02-28T01:16:57;8.07;;;3.30;;
14799;SDS011;7491;57.750;11.970;2023-02-28T01:19:23;5.00;;;3.75;;
14799;SDS011;7491;57.750;11.970;2023-02-28T01:21:49;9.10;;;4.07;;
14799;SDS011;7491;57.750;11.970;2023-02-28T01:24:16;5.50;;;4.47;;
14799;SDS011;7491;57.750;11.970;2023-02-28T01:26:42;6.85;;;3.88;;
14799;SDS011;7491;57.750;11.970;2023-02-28T01:29:10;5.70;;;3.20;;
14799;SDS011;7491;57.750;11.970;2023-02-28T01:31:36;4.88;;;3.15;;
14799;SDS011;7491;57.750;11.970;2023-02-28T01:34:03;6.65;;;3.72;;
14799;SDS011;7491;57.750;11.970;2023-02-28T01:36:29;4.97;;;3.13;;
14799;SDS011;7491;57.750;11.970;2023-02-28T01:38:56;4.00;;;3.35;;
14799;SDS011;7491;57.750;11.970;2023-02-28T01:41:23;8.23;;;3.63;;
14799;SDS011;7491;57.750;11.970;2023-02-28T01:44:00;5.00;;;3.88;;
14799;SDS011;7491;57.750;11.970;2023-02-28T01:46:34;7.15;;;3.47;;
14799;SDS011;7491;57.750;11.970;2023-02-28T01:49:03;6.00;;;3.53;;
14799;SDS011;7491;57.750;11.970;2023-02-28T01:51:32;4.45;;;3.80;;
14799;SDS011;7491;57.750;11.970;2023-02-28T01:54:00;4.00;;;3.58;;
14799;SDS011;7491;57.750;11.970;2023-02-28T01:56:27;5.55;;;3.50;;
14799;SDS011;7491;57.750;11.970;2023-02-28T01:58:55;5.72;;;3.38;;
14799;SDS011;7491;57.750;11.970;2023-02-28T02:01:22;6.05;;;3.28;;
14799;SDS011;7491;57.750;11.970;2023-02-28T02:03:51;5.93;;;3.05;;
14799;SDS011;7491;57.750;11.970;2023-02-28T02:06:20;4.88;;;3.22;;
14799;SDS011;7491;57.750;11.970;2023-02-28T02:08:47;7.70;;;3.58;;
14799;SDS011;7491;57.750;11.970;2023-02-28T02:11:13;5.85;;;3.70;;
14799;SDS011;7491;57.750;11.970;2023-02-28T02:13:48;8.90;;;3.83;;
14799;SDS011;7491;57.750;11.970;2023-02-28T02:16:27;6.85;;;3.67;;
14799;SDS011;7491;57.750;11.970;2023-02-28T02:19:02;7.30;;;3.45;;
14799;SDS011;7491;57.750;11.970;2023-02-28T02:21:43;5.75;;;3.05;;
14799;SDS011;7491;57.750;11.970;2023-02-28T02:27:06;8.82;;;3.42;;
14799;SDS011;7491;57.750;11.970;2023-02-28T02:32:28;11.43;;;3.58;;
14799;SDS011;7491;57.750;11.970;2023-02-28T02:35:01;8.18;;;4.15;;
14799;SDS011;7491;57.750;11.970;2023-02-28T02:37:33;8.77;;;3.25;;
14799;SDS011;7491;57.750;11.970;2023-02-28T02:40:04;4.47;;;3.53;;
14799;SDS011;7491;57.750;11.970;2023-02-28T02:42:36;4.13;;;2.97;;
14799;SDS011;7491;57.750;11.970;2023-02-28T02:45:06;5.65;;;3.22;;
14799;SDS011;7491;57.750;11.970;2023-02-28T02:47:33;6.43;;;3.65;;
14799;SDS011;7491;57.750;11.970;2023-02-28T02:50:04;5.68;;;3.40;;
14799;SDS011;7491;57.750;11.970;2023-02-28T02:52:33;6.45;;;3.20;;
14799;SDS011;7491;57.750;11.970;2023-02-28T02:55:00;7.38;;;3.90;;
14799;SDS011;7491;57.750;11.970;2023-02-28T02:57:30;5.97;;;4.00;;
14799;SDS011;7491;57.750;11.970;2023-02-28T02:59:58;4.93;;;3.58;;
14799;SDS011;7491;57.750;11.970;2023-02-28T03:02:26;7.00;;;3.45;;
14799;SDS011;7491;57.750;11.970;2023-02-28T03:04:59;6.88;;;3.40;;
14799;SDS011;7491;57.750;11.970;2023-02-28T03:07:28;5.00;;;3.85;;
14799;SDS011;7491;57.750;11.970;2023-02-28T03:09:55;7.47;;;3.38;;
14799;SDS011;7491;57.750;11.970;2023-02-28T03:12:22;7.00;;;3.50;;
14799;SDS011;7491;57.750;11.970;2023-02-28T03:14:56;7.07;;;4.20;;
14799;SDS011;7491;57.750;11.970;2023-02-28T03:17:42;8.25;;;3.67;;
14799;SDS011;7491;57.750;11.970;2023-02-28T03:20:16;6.85;;;3.85;;
14799;SDS011;7491;57.750;11.970;2023-02-28T03:22:51;5.35;;;3.80;;
14799;SDS011;7491;57.750;11.970;2023-02-28T03:25:20;8.90;;;4.15;;
14799;SDS011;7491;57.750;11.970;2023-02-28T03:27:48;4.22;;;3.30;;
14799;SDS011;7491;57.750;11.970;2023-02-28T03:30:19;5.10;;;3.85;;
14799;SDS011;7491;57.750;11.970;2023-02-28T03:32:50;7.10;;;4.10;;
14799;SDS011;7491;57.750;11.970;2023-02-28T03:35:20;7.07;;;3.72;;
14799;SDS011;7491;57.750;11.970;2023-02-28T03:37:48;6.32;;;4.50;;
14799;SDS011;7491;57.750;11.970;2023-02-28T03:42:45;4.22;;;3.50;;
14799;SDS011;7491;57.750;11.970;2023-02-28T03:45:14;7.10;;;4.05;;
14799;SDS011;7491;57.750;11.970;2023-02-28T03:47:44;9.45;;;3.85;;
14799;SDS011;7491;57.750;11.970;2023-02-28T03:50:12;5.85;;;4.10;;
14799;SDS011;7491;57.750;11.970;2023-02-28T03:52:41;6.22;;;4.15;;
14799;SDS011;7491;57.750;11.970;2023-02-28T03:55:10;5.35;;;3.80;;
14799;SDS011;7491;57.750;11.970;2023-02-28T03:57:38;7.93;;;3.80;;
14799;SDS011;7491;57.750;11.970;2023-02-28T04:00:08;10.45;;;3.67;;
14799;SDS011;7491;57.750;11.970;2023-02-28T04:02:36;6.05;;;3.92;;
14799;SDS011;7491;57.750;11.970;2023-02-28T04:05:04;4.18;;;3.20;;
14799;SDS011;7491;57.750;11.970;2023-02-28T04:07:31;6.55;;;3.58;;
14799;SDS011;7491;57.750;11.970;2023-02-28T04:09:58;5.50;;;3.45;;
14799;SDS011;7491;57.750;11.970;2023-02-28T04:12:24;8.52;;;3.70;;
14799;SDS011;7491;57.750;11.970;2023-02-28T04:14:51;6.53;;;3.80;;
14799;SDS011;7491;57.750;11.970;2023-02-28T04:17:18;9.45;;;4.07;;
14799;SDS011;7491;57.750;11.970;2023-02-28T04:19:45;5.28;;;3.70;;
14799;SDS011;7491;57.750;11.970;2023-02-28T04:22:11;6.72;;;3.70;;
14799;SDS011;7491;57.750;11.970;2023-02-28T04:24:38;9.60;;;4.97;;
14799;SDS011;7491;57.750;11.970;2023-02-28T04:27:06;8.10;;;4.38;;
14799;SDS011;7491;57.750;11.970;2023-02-28T04:29:33;4.95;;;3.80;;
14799;SDS011;7491;57.750;11.970;2023-02-28T04:31:59;6.75;;;3.88;;
14799;SDS011;7491;57.750;11.970;2023-02-28T04:34:29;14.05;;;4.32;;
14799;SDS011;7491;57.750;11.970;2023-02-28T04:36:55;5.80;;;3.63;;
14799;SDS011;7491;57.750;11.970;2023-02-28T04:39:22;9.02;;;3.22;;
14799;SDS011;7491;57.750;11.970;2023-02-28T04:41:49;6.78;;;3.63;;
14799;SDS011;7491;57.750;11.970;2023-02-28T04:44:16;8.43;;;3.25;;
14799;SDS011;7491;57.750;11.970;2023-02-28T04:46:43;6.97;;;3.50;;
14799;SDS011;7491;57.750;11.970;2023-02-28T04:49:10;7.78;;;3.63;;
14799;SDS011;7491;57.750;11.970;2023-02-28T04:51:38;6.82;;;3.53;;
14799;SDS011;7491;57.750;11.970;2023-02-28T04:54:05;6.97;;;3.47;;
14799;SDS011;7491;57.750;11.970;2023-02-28T04:56:31;6.13;;;3.80;;
14799;SDS011;7491;57.750;11.970;2023-02-28T04:58:58;6.35;;;3.60;;
14799;SDS011;7491;57.750;11.970;2023-02-28T05:01:25;6.80;;;3.50;;
14799;SDS011;7491;57.750;11.970;2023-02-28T05:03:52;5.32;;;3.13;;
14799;SDS011;7491;57.750;11.970;2023-02-28T05:06:20;4.63;;;2.97;;
14799;SDS011;7491;57.750;11.970;2023-02-28T05:08:48;5.75;;;2.70;;
14799;SDS011;7491;57.750;11.970;2023-02-28T05:11:16;5.97;;;2.88;;
14799;SDS011;7491;57.750;11.970;2023-02-28T05:13:42;4.43;;;2.30;;
14799;SDS011;7491;57.750;11.970;2023-02-28T05:16:09;4.20;;;2.60;;
14799;SDS011;7491;57.750;11.970;2023-02-28T05:18:35;2.78;;;2.58;;
14799;SDS011;7491;57.750;11.970;2023-02-28T05:21:02;3.60;;;2.40;;
14799;SDS011;7491;57.750;11.970;2023-02-28T05:23:29;4.63;;;2.47;;
14799;SDS011;7491;57.750;11.970;2023-02-28T05:25:56;5.95;;;2.70;;
14799;SDS011;7491;57.750;11.970;2023-02-28T05:28:23;3.20;;;2.40;;
14799;SDS011;7491;57.750;11.970;2023-02-28T05:30:49;3.80;;;2.10;;
14799;SDS011;7491;57.750;11.970;2023-02-28T05:33:16;4.78;;;2.20;;
14799;SDS011;7491;57.750;11.970;2023-02-28T05:35:42;5.18;;;2.67;;
14799;SDS011;7491;57.750;11.970;2023-02-28T05:38:09;6.38;;;3.03;;
14799;SDS011;7491;57.750;11.970;2023-02-28T05:40:37;3.27;;;2.60;;
14799;SDS011;7491;57.750;11.970;2023-02-28T05:43:05;8.00;;;3.10;;
14799;SDS011;7491;57.750;11.970;2023-02-28T05:45:32;5.53;;;2.92;;
14799;SDS011;7491;57.750;11.970;2023-02-28T05:47:58;3.15;;;2.80;;
14799;SDS011;7491;57.750;11.970;2023-02-28T05:50:25;4.47;;;2.90;;
14799;SDS011;7491;57.750;11.970;2023-02-28T05:52:51;6.55;;;3.63;;
14799;SDS011;7491;57.750;11.970;2023-02-28T05:55:18;5.97;;;3.30;;
14799;SDS011;7491;57.750;11.970;2023-02-28T05:57:44;6.03;;;2.80;;
14799;SDS011;7491;57.750;11.970;2023-02-28T06:00:13;11.38;;;3.10;;
14799;SDS011;7491;57.750;11.970;2023-02-28T06:02:40;5.30;;;2.97;;
14799;SDS011;7491;57.750;11.970;2023-02-28T06:05:08;6.78;;;3.00;;
14799;SDS011;7491;57.750;11.970;2023-02-28T06:07:38;3.63;;;2.78;;
14799;SDS011;7491;57.750;11.970;2023-02-28T06:10:04;7.45;;;2.85;;
14799;SDS011;7491;57.750;11.970;2023-02-28T06:12:31;4.70;;;2.67;;
14799;SDS011;7491;57.750;11.970;2023-02-28T06:14:57;9.60;;;3.40;;
14799;SDS011;7491;57.750;11.970;2023-02-28T06:17:25;7.63;;;3.60;;
14799;SDS011;7491;57.750;11.970;2023-02-28T06:19:52;9.40;;;4.18;;
14799;SDS011;7491;57.750;11.970;2023-02-28T06:22:18;8.52;;;4.40;;
14799;SDS011;7491;57.750;11.970;2023-02-28T06:24:44;6.05;;;3.80;;
14799;SDS011;7491;57.750;11.970;2023-02-28T06:27:11;9.68;;;3.90;;
14799;SDS011;7491;57.750;11.970;2023-02-28T06:29:37;5.40;;;3.83;;
14799;SDS011;7491;57.750;11.970;2023-02-28T06:32:05;6.05;;;3.72;;
14799;SDS011;7491;57.750;11.970;2023-02-28T06:34:32;7.78;;;4.07;;
14799;SDS011;7491;57.750;11.970;2023-02-28T06:37:00;4.80;;;3.60;;
14799;SDS011;7491;57.750;11.970;2023-02-28T06:39:27;8.32;;;3.42;;
14799;SDS011;7491;57.750;11.970;2023-02-28T06:41:53;4.47;;;3.80;;
14799;SDS011;7491;57.750;11.970;2023-02-28T06:44:20;8.63;;;5.33;;
14799;SDS011;7491;57.750;11.970;2023-02-28T06:46:46;11.38;;;3.92;;
14799;SDS011;7491;57.750;11.970;2023-02-28T06:49:13;6.30;;;4.32;;
14799;SDS011;7491;57.750;11.970;2023-02-28T06:51:43;6.18;;;3.90;;
14799;SDS011;7491;57.750;11.970;2023-02-28T06:54:10;4.95;;;3.75;;
14799;SDS011;7491;57.750;11.970;2023-02-28T06:56:36;11.48;;;3.90;;
14799;SDS011;7491;57.750;11.970;2023-02-28T06:59:03;8.43;;;4.05;;
14799;SDS011;7491;57.750;11.970;2023-02-28T07:01:30;8.38;;;4.35;;
14799;SDS011;7491;57.750;11.970;2023-02-28T07:03:57;6.45;;;3.80;;
14799;SDS011;7491;57.750;11.970;2023-02-28T07:06:25;7.78;;;4.03;;
14799;SDS011;7491;57.750;11.970;2023-02-28T07:08:53;6.57;;;4.07;;
14799;SDS011;7491;57.750;11.970;2023-02-28T07:11:20;6.55;;;4.15;;
14799;SDS011;7491;57.750;11.970;2023-02-28T07:13:47;7.32;;;3.72;;
14799;SDS011;7491;57.750;11.970;2023-02-28T07:16:14;8.35;;;3.90;;
14799;SDS011;7491;57.750;11.970;2023-02-28T07:18:40;7.88;;;4.25;;
14799;SDS011;7491;57.750;11.970;2023-02-28T07:21:07;5.60;;;3.35;;
14799;SDS011;7491;57.750;11.970;2023-02-28T07:23:34;12.43;;;4.22;;
14799;SDS011;7491;57.750;11.970;2023-02-28T07:26:04;7.18;;;3.75;;
14799;SDS011;7491;57.750;11.970;2023-02-28T07:28:31;13.13;;;4.20;;
14799;SDS011;7491;57.750;11.970;2023-02-28T07:31:02;16.80;;;4.20;;
14799;SDS011;7491;57.750;11.970;2023-02-28T07:33:28;10.15;;;4.00;;
14799;SDS011;7491;57.750;11.970;2023-02-28T07:35:59;10.75;;;4.97;;
14799;SDS011;7491;57.750;11.970;2023-02-28T07:38:26;10.40;;;4.18;;
14799;SDS011;7491;57.750;11.970;2023-02-28T07:40:52;12.05;;;3.92;;
14799;SDS011;7491;57.750;11.970;2023-02-28T07:43:20;9.05;;;4.30;;
14799;SDS011;7491;57.750;11.970;2023-02-28T07:45:46;6.03;;;3.55;;
14799;SDS011;7491;57.750;11.970;2023-02-28T07:48:13;7.47;;;4.18;;
14799;SDS011;7491;57.750;11.970;2023-02-28T07:50:39;11.02;;;4.10;;
14799;SDS011;7491;57.750;11.970;2023-02-28T07:53:05;10.68;;;4.10;;
14799;SDS011;7491;57.750;11.970;2023-02-28T07:55:32;11.07;;;4.32;;
14799;SDS011;7491;57.750;11.970;2023-02-28T07:57:58;9.25;;;4.25;;
14799;SDS011;7491;57.750;11.970;2023-02-28T08:00:26;7.93;;;4.60;;
14799;SDS011;7491;57.750;11.970;2023-02-28T08:02:56;8.45;;;4.05;;
14799;SDS011;7491;57.750;11.970;2023-02-28T08:05:23;15.15;;;4.43;;
14799;SDS011;7491;57.750;11.970;2023-02-28T08:07:49;9.13;;;4.93;;
14799;SDS011;7491;57.750;11.970;2023-02-28T08:10:16;9.68;;;5.13;;
14799;SDS011;7491;57.750;11.970;2023-02-28T08:12:42;22.13;;;5.03;;
14799;SDS011;7491;57.750;11.970;2023-02-28T08:15:09;8.40;;;4.97;;
14799;SDS011;7491;57.750;11.970;2023-02-28T08:17:37;17.73;;;7.03;;
14799;SDS011;7491;57.750;11.970;2023-02-28T08:20:04;15.27;;;6.00;;
14799;SDS011;7491;57.750;11.970;2023-02-28T08:22:30;18.83;;;7.07;;
14799;SDS011;7491;57.750;11.970;2023-02-28T08:24:57;16.15;;;6.85;;
14799;SDS011;7491;57.750;11.970;2023-02-28T08:27:23;18.58;;;7.25;;
14799;SDS011;7491;57.750;11.970;2023-02-28T08:29:50;23.25;;;7.55;;
14799;SDS011;7491;57.750;11.970;2023-02-28T08:32:16;17.98;;;6.82;;
14799;SDS011;7491;57.750;11.970;2023-02-28T08:34:44;50.22;;;9.38;;
14799;SDS011;7491;57.750;11.970;2023-02-28T08:37:10;29.25;;;8.15;;
14799;SDS011;7491;57.750;11.970;2023-02-28T08:39:37;20.17;;;8.35;;
14799;SDS011;7491;57.750;11.970;2023-02-28T08:42:03;29.75;;;8.80;;
14799;SDS011;7491;57.750;11.970;2023-02-28T08:44:30;39.13;;;9.90;;
14799;SDS011;7491;57.750;11.970;2023-02-28T08:46:56;81.72;;;13.55;;
14799;SDS011;7491;57.750;11.970;2023-02-28T08:49:22;60.50;;;10.40;;
14799;SDS011;7491;57.750;11.970;2023-02-28T08:51:50;62.55;;;12.77;;
14799;SDS011;7491;57.750;11.970;2023-02-28T08:54:17;68.82;;;12.32;;
14799;SDS011;7491;57.750;11.970;2023-02-28T08:56:44;39.28;;;9.63;;
14799;SDS011;7491;57.750;11.970;2023-02-28T08:59:10;62.03;;;11.77;;
14799;SDS011;7491;57.750;11.970;2023-02-28T09:01:37;34.47;;;10.38;;
14799;SDS011;7491;57.750;11.970;2023-02-28T09:04:03;27.52;;;8.75;;
14799;SDS011;7491;57.750;11.970;2023-02-28T09:06:32;30.98;;;10.43;;
14799;SDS011;7491;57.750;11.970;2023-02-28T09:08:59;24.73;;;8.35;;
14799;SDS011;7491;57.750;11.970;2023-02-28T09:11:26;19.73;;;8.52;;
14799;SDS011;7491;57.750;11.970;2023-02-28T09:13:53;19.85;;;8.40;;
14799;SDS011;7491;57.750;11.970;2023-02-28T09:16:20;23.20;;;9.52;;
14799;SDS011;7491;57.750;11.970;2023-02-28T09:18:47;20.08;;;8.35;;
14799;SDS011;7491;57.750;11.970;2023-02-28T09:21:14;23.48;;;8.30;;
14799;SDS011;7491;57.750;11.970;2023-02-28T09:23:41;25.08;;;9.25;;
14799;SDS011;7491;57.750;11.970;2023-02-28T09:26:12;22.63;;;8.68;;
14799;SDS011;7491;57.750;11.970;2023-02-28T09:28:39;23.02;;;9.27;;
14799;SDS011;7491;57.750;11.970;2023-02-28T09:31:05;21.98;;;9.68;;
14799;SDS011;7491;57.750;11.970;2023-02-28T09:33:32;36.67;;;10.70;;
14799;SDS011;7491;57.750;11.970;2023-02-28T09:35:59;34.00;;;10.05;;
14799;SDS011;7491;57.750;11.970;2023-02-28T09:38:26;30.80;;;10.38;;
14799;SDS011;7491;57.750;11.970;2023-02-28T09:40:54;29.55;;;10.88;;
14799;SDS011;7491;57.750;11.970;2023-02-28T09:43:23;27.98;;;10.38;;
14799;SDS011;7491;57.750;11.970;2023-02-28T09:45:51;35.75;;;10.13;;
14799;SDS011;7491;57.750;11.970;2023-02-28T09:48:24;24.95;;;10.80;;
14799;SDS011;7491;57.750;11.970;2023-02-28T09:50:52;23.07;;;9.73;;
14799;SDS011;7491;57.750;11.970;2023-02-28T09:53:21;26.48;;;9.20;;
14799;SDS011;7491;57.750;11.970;2023-02-28T09:55:48;23.23;;;8.95;;
14799;SDS011;7491;57.750;11.970;2023-02-28T09:58:16;24.55;;;8.85;;
14799;SDS011;7491;57.750;11.970;2023-02-28T10:00:46;20.13;;;9.40;;
14799;SDS011;7491;57.750;11.970;2023-02-28T10:03:21;13.02;;;8.02;;
14799;SDS011;7491;57.750;11.970;2023-02-28T10:05:52;21.30;;;8.95;;
14799;SDS011;7491;57.750;11.970;2023-02-28T10:08:21;14.40;;;8.20;;
14799;SDS011;7491;57.750;11.970;2023-02-28T10:10:50;18.02;;;8.32;;
14799;SDS011;7491;57.750;11.970;2023-02-28T10:13:21;20.30;;;8.63;;
14799;SDS011;7491;57.750;11.970;2023-02-28T10:15:52;13.25;;;7.97;;
14799;SDS011;7491;57.750;11.970;2023-02-28T10:18:21;15.45;;;7.95;;
14799;SDS011;7491;57.750;11.970;2023-02-28T10:20:49;14.65;;;7.85;;
14799;SDS011;7491;57.750;11.970;2023-02-28T10:23:19;12.30;;;7.13;;
14799;SDS011;7491;57.750;11.970;2023-02-28T10:25:47;10.98;;;5.95;;
14799;SDS011;7491;57.750;11.970;2023-02-28T10:28:16;14.70;;;7.10;;
14799;SDS011;7491;57.750;11.970;2023-02-28T10:30:44;12.73;;;6.65;;
14799;SDS011;7491;57.750;11.970;2023-02-28T10:33:17;20.98;;;7.93;;
14799;SDS011;7491;57.750;11.970;2023-02-28T10:35:44;15.85;;;7.82;;
14799;SDS011;7491;57.750;11.970;2023-02-28T10:38:14;15.65;;;6.85;;
14799;SDS011;7491;57.750;11.970;2023-02-28T10:40:41;13.00;;;6.65;;
14799;SDS011;7491;57.750;11.970;2023-02-28T10:43:16;12.30;;;7.78;;
14799;SDS011;7491;57.750;11.970;2023-02-28T10:45:51;14.70;;;7.13;;
14799;SDS011;7491;57.750;11.970;2023-02-28T10:48:29;14.52;;;8.10;;
14799;SDS011;7491;57.750;11.970;2023-02-28T10:50:55;13.82;;;7.22;;
14799;SDS011;7491;57.750;11.970;2023-02-28T10:53:27;11.63;;;6.82;;
14799;SDS011;7491;57.750;11.970;2023-02-28T10:55:58;12.52;;;6.80;;
14799;SDS011;7491;57.750;11.970;2023-02-28T10:58:26;11.80;;;6.40;;
14799;SDS011;7491;57.750;11.970;2023-02-28T11:00:53;12.57;;;6.55;;
14799;SDS011;7491;57.750;11.970;2023-02-28T11:03:24;21.50;;;9.50;;
14799;SDS011;7491;57.750;11.970;2023-02-28T11:05:52;16.70;;;8.15;;
14799;SDS011;7491;57.750;11.970;2023-02-28T11:08:18;17.42;;;9.90;;
14799;SDS011;7491;57.750;11.970;2023-02-28T11:10:45;18.13;;;9.73;;
14799;SDS011;7491;57.750;11.970;2023-02-28T11:13:16;14.63;;;8.77;;
14799;SDS011;7491;57.750;11.970;2023-02-28T11:15:43;12.10;;;7.57;;
14799;SDS011;7491;57.750;11.970;2023-02-28T11:18:20;15.30;;;9.00;;
14799;SDS011;7491;57.750;11.970;2023-02-28T11:20:47;14.88;;;7.85;;
14799;SDS011;7491;57.750;11.970;2023-02-28T11:23:15;17.17;;;8.15;;
14799;SDS011;7491;57.750;11.970;2023-02-28T11:25:46;11.88;;;7.38;;
14799;SDS011;7491;57.750;11.970;2023-02-28T11:28:23;16.98;;;7.57;;
14799;SDS011;7491;57.750;11.970;2023-02-28T11:30:59;9.63;;;7.00;;
14799;SDS011;7491;57.750;11.970;2023-02-28T11:33:27;15.77;;;7.70;;
14799;SDS011;7491;57.750;11.970;2023-02-28T11:35:55;16.38;;;9.05;;
14799;SDS011;7491;57.750;11.970;2023-02-28T11:38:25;16.77;;;9.25;;
14799;SDS011;7491;57.750;11.970;2023-02-28T11:40:55;15.68;;;9.05;;
14799;SDS011;7491;57.750;11.970;2023-02-28T11:43:28;16.02;;;9.50;;
14799;SDS011;7491;57.750;11.970;2023-02-28T11:46:00;15.68;;;8.55;;
14799;SDS011;7491;57.750;11.970;2023-02-28T11:48:32;14.60;;;9.20;;
14799;SDS011;7491;57.750;11.970;2023-02-28T11:51:03;17.45;;;10.40;;
14799;SDS011;7491;57.750;11.970;2023-02-28T11:53:43;18.10;;;9.18;;
14799;SDS011;7491;57.750;11.970;2023-02-28T11:56:14;16.80;;;9.38;;
14799;SDS011;7491;57.750;11.970;2023-02-28T11:58:44;17.92;;;9.25;;
14799;SDS011;7491;57.750;11.970;2023-02-28T12:01:15;14.00;;;9.75;;
14799;SDS011;7491;57.750;11.970;2023-02-28T12:03:45;19.30;;;10.18;;
14799;SDS011;7491;57.750;11.970;2023-02-28T12:06:21;16.85;;;9.20;;
14799;SDS011;7491;57.750;11.970;2023-02-28T12:09:02;16.00;;;8.85;;
14799;SDS011;7491;57.750;11.970;2023-02-28T12:11:34;15.05;;;8.25;;
14799;SDS011;7491;57.750;11.970;2023-02-28T12:14:09;15.30;;;9.40;;
14799;SDS011;7491;57.750;11.970;2023-02-28T12:16:44;16.13;;;7.40;;
14799;SDS011;7491;57.750;11.970;2023-02-28T12:19:17;14.07;;;7.40;;
14799;SDS011;7491;57.750;11.970;2023-02-28T12:21:48;12.80;;;6.50;;
14799;SDS011;7491;57.750;11.970;2023-02-28T12:24:26;10.60;;;6.43;;
14799;SDS011;7491;57.750;11.970;2023-02-28T12:26:55;11.98;;;6.43;;
14799;SDS011;7491;57.750;11.970;2023-02-28T12:29:24;10.07;;;4.85;;
14799;SDS011;7491;57.750;11.970;2023-02-28T12:31:55;6.88;;;4.70;;
14799;SDS011;7491;57.750;11.970;2023-02-28T12:34:24;7.50;;;4.60;;
14799;SDS011;7491;57.750;11.970;2023-02-28T12:36:51;6.68;;;4.47;;
14799;SDS011;7491;57.750;11.970;2023-02-28T12:39:20;11.73;;;4.40;;
14799;SDS011;7491;57.750;11.970;2023-02-28T12:41:53;8.05;;;4.13;;
14799;SDS011;7491;57.750;11.970;2023-02-28T12:44:20;5.68;;;3.97;;
14799;SDS011;7491;57.750;11.970;2023-02-28T12:46:48;8.15;;;3.42;;
14799;SDS011;7491;57.750;11.970;2023-02-28T12:49:16;6.03;;;3.80;;
14799;SDS011;7491;57.750;11.970;2023-02-28T12:51:43;5.03;;;3.50;;
14799;SDS011;7491;57.750;11.970;2023-02-28T12:54:12;7.60;;;3.28;;
14799;SDS011;7491;57.750;11.970;2023-02-28T12:56:44;8.27;;;3.25;;
14799;SDS011;7491;57.750;11.970;2023-02-28T12:59:14;4.97;;;3.47;;
14799;SDS011;7491;57.750;11.970;2023-02-28T13:01:47;6.15;;;3.40;;
14799;SDS011;7491;57.750;11.970;2023-02-28T13:04:27;6.20;;;3.60;;
14799;SDS011;7491;57.750;11.970;2023-02-28T13:07:00;4.55;;;3.20;;
14799;SDS011;7491;57.750;11.970;2023-02-28T13:09:29;8.48;;;3.35;;
14799;SDS011;7491;57.750;11.970;2023-02-28T13:11:56;6.85;;;3.30;;
14799;SDS011;7491;57.750;11.970;2023-02-28T13:14:26;7.13;;;3.10;;
14799;SDS011;7491;57.750;11.970;2023-02-28T13:16:59;5.10;;;3.28;;
14799;SDS011;7491;57.750;11.970;2023-02-28T13:19:28;7.10;;;3.42;;
14799;SDS011;7491;57.750;11.970;2023-02-28T13:21:55;8.98;;;3.78;;
14799;SDS011;7491;57.750;11.970;2023-02-28T13:24:41;8.25;;;3.58;;
14799;SDS011;7491;57.750;11.970;2023-02-28T13:27:22;5.60;;;3.20;;
14799;SDS011;7491;57.750;11.970;2023-02-28T13:29:51;6.63;;;3.13;;
14799;SDS011;7491;57.750;11.970;2023-02-28T13:38:15;21.88;;;4.60;;
14799;SDS011;7491;57.750;11.970;2023-02-28T13:40:41;9.82;;;3.15;;
14799;SDS011;7491;57.750;11.970;2023-02-28T13:43:08;5.20;;;3.30;;
14799;SDS011;7491;57.750;11.970;2023-02-28T13:45:36;4.18;;;2.42;;
14799;SDS011;7491;57.750;11.970;2023-02-28T13:48:04;4.32;;;2.65;;
14799;SDS011;7491;57.750;11.970;2023-02-28T13:50:40;5.07;;;2.13;;
14799;SDS011;7491;57.750;11.970;2023-02-28T13:56:10;4.90;;;2.80;;
14799;SDS011;7491;57.750;11.970;2023-02-28T13:58:48;5.40;;;2.90;;
14799;SDS011;7491;57.750;11.970;2023-02-28T14:01:31;4.80;;;2.92;;
14799;SDS011;7491;57.750;11.970;2023-02-28T14:04:11;3.20;;;2.17;;
14799;SDS011;7491;57.750;11.970;2023-02-28T14:06:41;4.40;;;2.40;;
14799;SDS011;7491;57.750;11.970;2023-02-28T14:09:16;3.25;;;1.85;;
14799;SDS011;7491;57.750;11.970;2023-02-28T14:11:45;2.33;;;2.13;;
14799;SDS011;7491;57.750;11.970;2023-02-28T14:16:54;2.13;;;1.92;;
14799;SDS011;7491;57.750;11.970;2023-02-28T14:19:23;8.30;;;1.80;;
14799;SDS011;7491;57.750;11.970;2023-02-28T14:21:53;3.08;;;1.50;;
14799;SDS011;7491;57.750;11.970;2023-02-28T14:30:10;2.67;;;1.60;;
14799;SDS011;7491;57.750;11.970;2023-02-28T14:32:43;3.92;;;1.27;;
14799;SDS011;7491;57.750;11.970;2023-02-28T14:35:16;4.30;;;1.85;;
14799;SDS011;7491;57.750;11.970;2023-02-28T14:37:43;2.88;;;1.75;;
14799;SDS011;7491;57.750;11.970;2023-02-28T14:40:14;1.67;;;1.40;;
14799;SDS011;7491;57.750;11.970;2023-02-28T14:42:46;8.50;;;1.65;;
14799;SDS011;7491;57.750;11.970;2023-02-28T14:45:17;1.80;;;1.50;;
14799;SDS011;7491;57.750;11.970;2023-02-28T14:47:48;4.47;;;1.60;;
14799;SDS011;7491;57.750;11.970;2023-02-28T14:50:17;2.97;;;1.05;;
14799;SDS011;7491;57.750;11.970;2023-02-28T14:52:51;3.25;;;1.70;;
14799;SDS011;7491;57.750;11.970;2023-02-28T14:55:18;1.85;;;1.40;;
14799;SDS011;7491;57.750;11.970;2023-02-28T14:57:55;3.95;;;1.50;;
14799;SDS011;7491;57.750;11.970;2023-02-28T15:00:28;3.22;;;1.38;;
14799;SDS011;7491;57.750;11.970;2023-02-28T15:03:01;4.60;;;1.48;;
14799;SDS011;7491;57.750;11.970;2023-02-28T15:05:29;4.93;;;1.60;;
14799;SDS011;7491;57.750;11.970;2023-02-28T15:08:09;2.72;;;1.40;;
14799;SDS011;7491;57.750;11.970;2023-02-28T15:10:36;1.77;;;1.20;;
14799;SDS011;7491;57.750;11.970;2023-02-28T15:13:05;1.90;;;1.30;;
14799;SDS011;7491;57.750;11.970;2023-02-28T15:15:35;2.78;;;1.40;;
14799;SDS011;7491;57.750;11.970;2023-02-28T15:18:08;3.40;;;1.20;;